Flight Track Log - Related Links

Times and Time Zones

All times are in EDT time to prevent confusion due to time zone crossing. See the XOJ760 flight status page for this flight to view local times or setup timezone preferences in your user account.

Time Position Orientation Groundspeed Altitude Reporting Facility
EDT Latitude Longitude Course Direction KTS MPH feet Rate Location/Type
Fri 04:56:22 PM 41.1000 -73.7833 270° West 220 253 4,500  Level New TRACON
Fri 04:57:22 PM 41.0833 -73.8667 255° West 265 305 7,000 1,810 Climbing New TRACON
Fri 04:58:28 PM 41.0333 -73.9500 232° Southwest 270 311 8,300 1,429 Climbing New TRACON
Fri 04:59:28 PM 41.0000 -74.0500 246° West 300 345 10,000 850 Climbing New TRACON
Fri 05:00:28 PM 40.9500 -74.1667 240° Southwest 368 423 10,000 1,838 Level New TRACON
Fri 05:01:00 PM 40.8000 -74.3977 270° West  Level FlightAware
Fri 05:02:08 PM 40.8106 -74.2419 202° Southwest 363 418 14,900  Level New Center
Fri 05:03:08 PM 40.7550 -74.3625 239° Southwest 340 391 17,000 1,525 Climbing New Center
Fri 05:04:06 PM 40.7178 -74.4892 249° West 382 440 17,900 2,186 Climbing New Center
Fri 05:05:06 PM 40.6731 -74.6456 249° West 413 475 21,300 2,750 Climbing New Center
Fri 05:06:06 PM 40.6331 -74.7853 249° West 413 475 23,400 2,182 Climbing New Center
Fri 05:07:07 PM 40.5925 -74.9278 249° West 418 481 25,700 2,100 Climbing New Center
Fri 05:08:06 PM 40.5353 -75.0719 242° Southwest 433 498 27,600 1,966 Climbing New Center
Fri 05:09:06 PM 40.4536 -75.1978 230° Southwest 446 513 29,600 1,835 Climbing New Center
Fri 05:10:07 PM 40.3714 -75.3286 231° Southwest 460 529 31,300 1,587 Climbing New Center
Fri 05:11:07 PM 40.2892 -75.4619 231° Southwest 472 543 32,800 1,488 Climbing New Center
Fri 05:12:08 PM 40.2022 -75.5975 230° Southwest 485 558 34,300 1,438 Climbing New Center
Fri 05:13:08 PM 40.1175 -75.7356 231° Southwest 490 564 35,700 1,140 Climbing New Center
Fri 05:15:07 PM 39.9400 -76.0108 230° Southwest 496 571 37,700 1,017 Climbing Washington Center
Fri 05:16:05 PM 39.8539 -76.1456 230° Southwest 496 571 38,700 850 Climbing Washington Center
Fri 05:17:07 PM 39.7636 -76.2825 229° Southwest 496 571 39,400 639 Climbing Washington Center
Fri 05:18:07 PM 39.6753 -76.4219 231° Southwest 496 571 40,000 694 Climbing Washington Center
Fri 05:19:08 PM 39.5847 -76.5581 229° Southwest 496 571 40,800 706 Climbing Washington Center
Fri 05:20:06 PM 39.4961 -76.6942 230° Southwest 502 578 41,400 655 Climbing Washington Center
Fri 05:21:07 PM 39.4053 -76.8297 229° Southwest 502 578 42,100 694 Climbing Washington Center
Fri 05:22:07 PM 39.3183 -76.9625 230° Southwest 502 578 42,800 446 Climbing Washington Center
Fri 05:23:08 PM 39.2333 -77.0922 230° Southwest 496 571 43,000 101 Climbing Washington Center
Fri 05:24:06 PM 39.1442 -77.2269 230° Southwest 496 571 43,000  Level Washington Center
Fri 05:25:07 PM 39.0547 -77.3611 229° Southwest 496 571 43,000  Level Washington Center
Fri 05:26:08 PM 38.9672 -77.4872 228° Southwest 496 571 43,000  Level Washington Center
Fri 05:27:06 PM 38.8775 -77.6261 230° Southwest 496 571 43,000  Level Washington Center
Fri 05:28:07 PM 38.8006 -77.7386 229° Southwest 496 571 43,000  Level Washington Center
Fri 05:29:07 PM 38.7039 -77.8794 229° Southwest 503 579 43,000  Level Washington Center
Fri 05:30:08 PM 38.6181 -78.0069 229° Southwest 496 571 43,000  Level Washington Center
Fri 05:31:06 PM 38.5278 -78.1394 229° Southwest 496 571 43,000  Level Washington Center
Fri 05:32:06 PM 38.4375 -78.2689 228° Southwest 496 571 43,000  Level Washington Center
Fri 05:33:07 PM 38.3467 -78.4033 229° Southwest 496 571 43,000  Level Washington Center
Fri 05:34:07 PM 38.2517 -78.5478 230° Southwest 496 571 43,000  Level Washington Center
Fri 05:35:08 PM 38.1586 -78.6814 228° Southwest 496 571 43,000  Level Washington Center
Fri 05:36:07 PM 38.0675 -78.8122 229° Southwest 496 571 43,000  Level Washington Center
Fri 05:37:08 PM 37.9742 -78.9425 228° Southwest 496 571 43,000  Level Washington Center
Fri 05:38:07 PM 37.8894 -79.0625 228° Southwest 501 577 43,000  Level Washington Center
Fri 05:39:07 PM 37.7981 -79.1897 228° Southwest 501 577 43,000  Level Washington Center
Fri 05:40:08 PM 37.6956 -79.3369 229° Southwest 501 577 43,000  Level Washington Center
Fri 05:41:06 PM 37.6017 -79.4686 228° Southwest 506 582 43,000  Level Washington Center
Fri 05:42:07 PM 37.5078 -79.5975 227° Southwest 511 588 43,000  Level Washington Center
Fri 05:43:08 PM 37.4178 -79.7261 229° Southwest 527 606 43,000  Level Washington Center
Fri 05:44:08 PM 37.3258 -79.8492 227° Southwest 517 595 43,000  Level Washington Center
Fri 05:46:18 PM 37.1100 -80.1403 227° Southwest 494 568 43,000  Level Atlanta Center
Fri 05:47:18 PM 37.0200 -80.2667 228° Southwest 483 556 43,000  Level Atlanta Center
Fri 05:48:18 PM 36.9358 -80.3772 226° Southwest 483 556 43,000  Level Atlanta Center
Fri 05:49:18 PM 36.8456 -80.5008 228° Southwest 483 556 43,000  Level Atlanta Center
Fri 05:50:18 PM 36.7617 -80.6289 231° Southwest 478 550 43,000  Level Atlanta Center
Fri 05:51:18 PM 36.6817 -80.7564 232° Southwest 472 543 43,000  Level Atlanta Center
Fri 05:52:18 PM 36.5975 -80.8814 230° Southwest 473 544 43,000  Level Atlanta Center
Fri 05:53:18 PM 36.5153 -81.0114 232° Southwest 478 550 43,000  Level Atlanta Center
Fri 05:54:18 PM 36.4328 -81.1383 231° Southwest 478 550 43,000  Level Atlanta Center
Fri 05:55:18 PM 36.3503 -81.2675 232° Southwest 478 550 43,000  Level Atlanta Center
Fri 05:56:18 PM 36.2572 -81.4047 230° Southwest 478 550 43,000  Level Atlanta Center
Fri 05:57:18 PM 36.1725 -81.5336 231° Southwest 483 556 43,000  Level Atlanta Center
Fri 05:58:18 PM 36.0853 -81.6619 230° Southwest 483 556 43,000 -50 Level Atlanta Center
Fri 05:59:18 PM 36.0042 -81.7878 231° Southwest 474 545 42,900 -800 Descending Atlanta Center
Fri 06:00:18 PM 35.9189 -81.9131 230° Southwest 480 552 41,400 -1,500 Descending Atlanta Center
Fri 06:01:18 PM 35.8375 -82.0356 231° Southwest 480 552 39,900 -1,750 Descending Atlanta Center
Fri 06:02:18 PM 35.7539 -82.1606 231° Southwest 480 552 37,900 -2,050 Descending Atlanta Center
Fri 06:03:18 PM 35.6642 -82.2878 229° Southwest 480 552 35,800 -1,450 Descending Atlanta Center
Fri 06:04:18 PM 35.5803 -82.4122 230° Southwest 480 552 35,000 -1,100 Descending Atlanta Center
Fri 06:05:18 PM 35.4900 -82.5414 229° Southwest 485 558 33,600 -1,400 Descending Atlanta Center
Fri 06:06:18 PM 35.4017 -82.6653 229° Southwest 485 558 32,200 -1,450 Descending Atlanta Center
Fri 06:07:18 PM 35.3156 -82.7942 231° Southwest 497 572 30,700 -1,100 Descending Atlanta Center
Fri 06:08:18 PM 35.2250 -82.9200 229° Southwest 492 566 30,000 -350 Descending Atlanta Center
Fri 06:09:18 PM 35.1364 -83.0533 231° Southwest 505 581 30,000  Level Atlanta Center
Fri 06:10:18 PM 35.0539 -83.1711 229° Southwest 513 590 30,000 -1,700 Level Atlanta Center
Fri 06:11:18 PM 34.9692 -83.2911 229° Southwest 494 568 26,600 -2,500 Descending Atlanta Center
Fri 06:12:18 PM 34.8864 -83.4133 230° Southwest 482 555 25,000 -1,500 Descending Atlanta Center
Fri 06:13:18 PM 34.8117 -83.5175 229° Southwest 452 520 23,600 -2,900 Descending Atlanta Center
Fri 06:14:18 PM 34.7306 -83.6294 229° Southwest 414 476 19,200 -4,400 Descending Atlanta Center
Fri 06:15:18 PM 34.6411 -83.6803 205° Southwest 361 415 14,800 -3,850 Descending Atlanta Center
Fri 06:16:18 PM 34.5492 -83.6656 172° South 330 380 11,500 -2,800 Descending Atlanta Center
Fri 06:17:18 PM 34.4719 -83.6558 174° South 301 346 9,200 -2,200 Descending Atlanta Center
Fri 06:18:18 PM 34.4011 -83.6486 175° South 277 319 7,100 -1,061 Descending Atlanta Center
Fri 06:20:19 PM 34.2500 -83.6667 186° South 268 308 6,000 -367 Descending Atlanta TRACON
Fri 06:21:18 PM 34.2092 -83.7122 223° Southwest 256 295 6,000  Level Atlanta Center
Fri 06:22:18 PM 34.1781 -83.7928 245° Southwest 261 300 6,000  Level Atlanta Center
Fri 06:23:18 PM 34.1428 -83.8731 242° Southwest 272 313 6,000  Level Atlanta Center
Fri 06:24:18 PM 34.1178 -83.9533 249° West 267 307 6,000 -450 Level Atlanta Center
Fri 06:25:18 PM 34.0864 -84.0289 243° Southwest 261 300 5,100 -1,000 Descending Atlanta Center
Fri 06:26:18 PM 34.0383 -84.0939 228° Southwest 256 295 4,000 -590 Descending Atlanta Center
Fri 06:27:20 PM 33.9833 -84.1667 228° Southwest 232 267 3,900 -516 Descending Atlanta TRACON
Fri 06:28:26 PM 33.9667 -84.2333 253° West 191 220 2,900 -500 Descending Atlanta TRACON
Fri 06:29:20 PM 33.9500 -84.2667 239° Southwest 166 191 2,900 -600 Level Atlanta TRACON
Fri 06:30:26 PM 33.9167 -84.2833 203° Southwest 104 120 1,700 -1,091 Descending Atlanta TRACON
Fri 06:32:00 PM 33.8756 -84.3020 209° Southwest  Level Estimated
Fri 06:39:00 PM 33.8756 -84.3020 209° Southwest  Level Estimated

Login

Don't have an account? Register now (free) for customized features, flight alerts, and more!